Time;durP1;ratioP1;P1;durP2;ratioP2;P2;SDS_P1;SDS_P2;PMS_P1;PMS_P2;Temp;Humidity;BMP_temperature;BMP_pressure;BME280_temperature;BME280_humidity;BME280_pressure;Samples;Min_cycle;Max_cycle;Signal;HPM_P1;HPM_P2
2021/07/04 00:00:29;;;;;;;6.03;5.43;;;;;;;17.86;96.95;155952.16;5104051;28;20465;-75
2021/07/04 00:03:05;;;;;;;6.20;5.60;;;;;;;17.89;98.97;155959.97;5105034;28;20507;-75
2021/07/04 00:05:44;;;;;;;6.50;5.70;;;;;;;17.77;97.21;155927.38;5105811;28;20480;-75
2021/07/04 00:08:23;;;;;;;5.87;5.37;;;;;;;17.73;97.91;155917.00;5075014;28;20840;-75
2021/07/04 00:11:01;;;;;;;5.63;5.13;;;;;;;17.64;97.92;155896.16;5074480;28;20845;-75
2021/07/04 00:13:39;;;;;;;5.70;5.10;;;;;;;17.63;97.82;155892.28;5084567;28;20858;-74
2021/07/04 00:16:16;;;;;;;6.60;5.40;;;;;;;17.60;99.30;155884.47;5072905;28;20968;-75
2021/07/04 00:18:52;;;;;;;7.00;5.90;;;;;;;17.54;98.43;155870.16;5090774;28;20465;-75
2021/07/04 00:21:29;;;;;;;6.00;5.40;;;;;;;17.59;98.55;155881.84;5069667;28;20451;-75
2021/07/04 00:24:05;;;;;;;7.20;5.67;;;;;;;17.53;98.89;155867.53;5054536;28;20880;-75
2021/07/04 00:26:40;;;;;;;6.33;5.70;;;;;;;17.51;99.09;155860.97;5098240;28;20450;-75
2021/07/04 00:29:16;;;;;;;6.10;5.60;;;;;;;17.54;100.00;155868.84;5108038;28;20503;-75
2021/07/04 00:31:52;;;;;;;6.70;6.00;;;;;;;17.52;99.99;155863.59;5075886;28;20492;-75
2021/07/04 00:34:27;;;;;;;6.80;6.10;;;;;;;17.49;100.00;155855.78;5098011;28;20906;-74
2021/07/04 00:37:04;;;;;;;6.27;5.63;;;;;;;17.49;100.00;155857.09;5108111;28;20466;-74
2021/07/04 00:39:40;;;;;;;6.23;5.60;;;;;;;17.53;100.00;155866.22;5106971;28;20528;-74
2021/07/04 00:42:15;;;;;;;6.83;6.13;;;;;;;17.58;100.00;155880.53;5090961;28;20438;-75
2021/07/04 00:44:53;;;;;;;6.80;5.97;;;;;;;17.57;100.00;155876.66;5074496;28;20438;-75
2021/07/04 00:47:29;;;;;;;6.27;5.67;;;;;;;17.60;100.00;155884.47;5074073;28;20450;-74
2021/07/04 00:50:06;;;;;;;7.23;6.00;;;;;;;17.56;100.00;155875.34;5057938;28;20446;-75
2021/07/04 00:52:44;;;;;;;8.00;5.90;;;;;;;17.47;100.00;155850.56;5072894;28;20871;-75
2021/07/04 00:55:20;;;;;;;8.00;6.97;;;;;;;17.48;100.00;155853.16;5058370;28;20458;-75
2021/07/04 00:58:01;;;;;;;6.63;5.97;;;;;;;17.54;100.00;155868.84;5073657;28;20473;-75
2021/07/04 01:00:42;;;;;;;7.13;6.47;;;;;;;17.49;100.00;155855.78;5073890;28;20469;-75
2021/07/04 01:03:18;;;;;;;6.37;5.77;;;;;;;17.49;100.00;155857.09;5057755;28;20917;-75
2021/07/04 01:05:59;;;;;;;9.30;6.20;;;;;;;17.53;100.00;155866.22;5057958;28;20482;-75
2021/07/04 01:08:36;;;;;;;7.53;6.00;;;;;;;17.53;100.00;155866.22;5058074;28;20449;-75
2021/07/04 01:11:12;;;;;;;6.83;6.13;;;;;;;17.51;100.00;155860.97;5057661;28;20442;-74
2021/07/04 01:13:48;;;;;;;7.80;6.60;;;;;;;17.52;100.00;155863.59;5057783;28;20450;-74
2021/07/04 01:16:26;;;;;;;6.70;6.07;;;;;;;17.51;100.00;155862.28;5074282;28;20809;-74
2021/07/04 01:19:03;;;;;;;6.80;6.10;;;;;;;17.46;100.00;155849.25;5073682;28;20528;-75
2021/07/04 01:21:42;;;;;;;6.50;5.90;;;;;;;17.47;100.00;155850.56;5057322;28;20450;-74
2021/07/04 01:24:20;;;;;;;7.30;6.60;;;;;;;17.49;100.00;155855.78;5070690;28;20824;-75
2021/07/04 01:26:57;;;;;;;6.57;5.77;;;;;;;17.48;100.00;155854.47;5040489;28;20454;-74
2021/07/04 01:29:33;;;;;;;6.37;5.77;;;;;;;17.37;100.00;155824.50;5073181;28;20849;-74
2021/07/04 01:32:08;;;;;;;6.67;6.10;;;;;;;17.32;100.00;155812.81;5073463;28;20438;-74
2021/07/04 01:34:44;;;;;;;7.53;6.83;;;;;;;17.32;100.00;155811.50;5071107;28;20438;-74
2021/07/04 01:37:20;;;;;;;6.93;6.23;;;;;;;17.31;100.00;155808.91;5106503;28;20827;-75
2021/07/04 01:39:57;;;;;;;7.43;6.50;;;;;;;17.29;100.00;155805.00;5089936;28;20481;-75
2021/07/04 01:42:33;;;;;;;6.43;5.83;;;;;;;17.25;100.00;155793.28;5060525;28;20447;-75
2021/07/04 01:45:10;;;;;;;6.70;6.03;;;;;;;17.24;100.00;155790.66;5090554;28;20438;-75
2021/07/04 01:47:49;;;;;;;6.70;6.10;;;;;;;17.26;100.00;155795.91;5090656;28;20450;-75
2021/07/04 01:50:26;;;;;;;6.57;5.97;;;;;;;17.29;100.00;155805.00;5073072;28;20941;-75
2021/07/04 01:53:03;;;;;;;8.30;7.50;;;;;;;17.28;100.00;155801.09;5072931;28;20461;-75
2021/07/04 01:55:42;;;;;;;6.80;6.10;;;;;;;17.24;100.00;155791.97;5072639;28;20477;-75
2021/07/04 01:58:19;;;;;;;7.53;6.73;;;;;;;17.17;100.00;155772.47;5053689;28;20553;-75
2021/07/04 02:01:05;;;;;;;8.17;6.80;;;;;;;17.13;100.00;155763.34;5041189;28;20454;-74
2021/07/04 02:03:42;;;;;;;8.13;6.93;;;;;;;17.11;100.00;155756.84;5090496;28;20449;-74
2021/07/04 02:06:24;;;;;;;7.60;6.80;;;;;;;17.12;100.00;155760.78;5072167;28;20977;-75
2021/07/04 02:09:00;;;;;;;7.13;6.43;;;;;;;17.10;100.00;155754.25;5056913;28;20422;-75
2021/07/04 02:11:39;;;;;;;7.27;6.57;;;;;;;17.12;100.00;155759.47;5088063;28;20446;-75
2021/07/04 02:14:18;;;;;;;7.57;6.87;;;;;;;17.12;100.00;155760.78;5105967;28;20449;-74
2021/07/04 02:17:05;;;;;;;7.77;6.37;;;;;;;17.08;100.00;155749.06;5058578;28;20465;-74
2021/07/04 02:20:32;;;;;;;7.73;6.93;;;;;;;17.00;100.00;155730.81;5072165;28;21322;-75
2021/07/04 02:23:27;;;;;;;7.07;6.43;;;;;;;17.00;100.00;155730.81;5106127;28;20450;-74
2021/07/04 02:26:17;;;;;;;7.83;6.90;;;;;;;16.96;100.00;155720.44;5090569;28;20442;-74
2021/07/04 02:28:56;;;;;;;7.43;6.73;;;;;;;16.95;100.00;155717.81;5105386;28;20426;-74
2021/07/04 02:31:44;;;;;;;8.00;7.30;;;;;;;16.92;100.00;155710.00;5056253;28;20549;-75
2021/07/04 02:34:23;;;;;;;7.27;6.57;;;;;;;16.87;100.00;155697.00;5056761;28;20434;-75
2021/07/04 02:37:04;;;;;;;8.00;6.10;;;;;;;16.87;100.00;155695.69;5068799;28;20527;-75
2021/07/04 02:39:50;;;;;;;7.77;6.97;;;;;;;16.85;100.00;155691.81;5058381;28;20526;-74
2021/07/04 02:42:27;;;;;;;7.40;6.70;;;;;;;16.84;100.00;155689.19;5056292;28;20449;-75
2021/07/04 02:45:04;;;;;;;10.37;7.13;;;;;;;16.82;100.00;155684.00;5071728;28;20433;-75
2021/07/04 02:47:40;;;;;;;8.03;7.23;;;;;;;16.82;100.00;155682.69;5056103;28;20427;-75
2021/07/04 02:50:20;;;;;;;8.27;7.27;;;;;;;16.83;100.00;155686.59;5055611;28;20853;-74
2021/07/04 02:52:57;;;;;;;8.13;7.33;;;;;;;16.87;100.00;155697.00;5051882;28;20442;-75
2021/07/04 02:55:32;;;;;;;7.00;6.30;;;;;;;16.85;100.00;155690.50;5060126;28;21109;-74
2021/07/04 02:58:08;;;;;;;6.87;6.17;;;;;;;16.85;100.00;155691.81;5059619;28;20469;-75
2021/07/04 03:00:48;;;;;;;7.40;6.70;;;;;;;16.81;100.00;155681.38;5056245;28;20446;-74
2021/07/04 03:03:26;;;;;;;7.13;6.43;;;;;;;16.85;100.00;155690.50;5052664;28;20454;-74
2021/07/04 03:06:02;;;;;;;7.60;6.90;;;;;;;16.88;100.00;155699.63;5036507;28;20482;-75
2021/07/04 03:08:43;;;;;;;7.80;7.10;;;;;;;16.86;100.00;155694.41;5057990;28;20890;-75
2021/07/04 03:11:19;;;;;;;7.73;6.60;;;;;;;16.93;100.00;155712.63;5071510;28;21217;-75
2021/07/04 03:13:55;;;;;;;8.67;7.27;;;;;;;16.93;100.00;155711.31;5071559;28;20929;-75
2021/07/04 03:16:33;;;;;;;7.67;6.97;;;;;;;16.94;100.00;155715.19;5055752;28;20449;-75
2021/07/04 03:19:10;;;;;;;7.00;6.30;;;;;;;16.93;100.00;155712.63;5055820;28;20465;-75
2021/07/04 03:21:45;;;;;;;8.00;7.20;;;;;;;16.92;100.00;155708.69;5087489;28;20426;-75
2021/07/04 03:24:21;;;;;;;9.07;7.30;;;;;;;16.91;100.00;155706.13;5060470;28;20438;-75
2021/07/04 03:26:57;;;;;;;7.90;7.20;;;;;;;16.92;100.00;155710.00;5084676;28;20522;-75
2021/07/04 03:29:33;;;;;;;7.30;6.70;;;;;;;16.88;100.00;155699.63;5056026;28;21206;-75
2021/07/04 03:32:10;;;;;;;7.30;6.60;;;;;;;16.89;100.00;155702.19;5084814;28;20442;-75
2021/07/04 03:34:48;;;;;;;7.63;6.83;;;;;;;16.91;100.00;155706.13;5052495;28;20463;-74
2021/07/04 03:37:25;;;;;;;7.40;6.70;;;;;;;16.89;100.00;155702.19;5076757;28;20878;-75
2021/07/04 03:40:03;;;;;;;9.00;7.00;;;;;;;16.87;100.00;155695.69;5087433;28;20470;-74
2021/07/04 03:42:38;;;;;;;8.00;7.20;;;;;;;16.84;100.00;155689.19;5070950;28;20443;-75
2021/07/04 03:45:14;;;;;;;7.43;6.73;;;;;;;16.85;100.00;155691.81;5044375;28;20449;-74
2021/07/04 03:47:52;;;;;;;8.03;6.90;;;;;;;16.84;100.00;155689.19;5057974;28;20445;-74
2021/07/04 03:50:34;;;;;;;9.43;8.53;;;;;;;16.84;100.00;155687.88;5059324;28;20553;-75
2021/07/04 03:53:10;;;;;;;8.07;7.00;;;;;;;16.87;100.00;155697.00;5056176;28;20474;-74
2021/07/04 03:55:47;;;;;;;7.83;6.87;;;;;;;16.88;100.00;155698.31;5039937;28;20854;-75
2021/07/04 03:58:23;;;;;;;7.70;7.00;;;;;;;16.96;100.00;155720.44;5066658;28;20957;-74
2021/07/04 04:00:58;;;;;;;9.00;7.67;;;;;;;17.05;100.00;155743.81;5059336;28;20473;-74
2021/07/04 04:03:43;;;;;;;7.87;7.07;;;;;;;17.05;100.00;155743.81;5074952;28;20434;-75
2021/07/04 04:06:19;;;;;;;7.53;6.83;;;;;;;17.09;100.00;155751.63;5077845;28;20572;-74
2021/07/04 04:09:00;;;;;;;7.77;6.97;;;;;;;17.12;100.00;155759.47;5039373;28;20435;-75
2021/07/04 04:11:44;;;;;;;8.73;7.83;;;;;;;17.21;100.00;155782.91;5061262;28;20458;-74
2021/07/04 04:14:25;;;;;;;9.40;7.70;;;;;;;17.64;100.00;155896.16;5055056;28;20454;-75
2021/07/04 04:17:05;;;;;;;9.03;8.17;;;;;;;17.95;100.00;155975.56;5070138;28;20434;-74
2021/07/04 04:19:48;;;;;;;9.33;8.13;;;;;;;17.93;100.00;155970.38;5064287;28;20422;-74
2021/07/04 04:22:24;;;;;;;8.10;7.30;;;;;;;17.89;100.00;155958.66;5075087;28;20944;-75
2021/07/04 04:25:01;;;;;;;9.00;7.20;;;;;;;17.86;100.00;155952.16;5058821;28;20446;-74
2021/07/04 04:27:37;;;;;;;9.37;8.37;;;;;;;17.78;100.00;155931.31;5091420;28;21010;-74
2021/07/04 04:30:15;;;;;;;8.17;7.33;;;;;;;17.83;100.00;155943.03;5058561;28;20434;-75
2021/07/04 04:32:54;;;;;;;7.93;6.90;;;;;;;17.87;100.00;155954.72;5074407;28;20992;-74
2021/07/04 04:35:31;;;;;;;7.23;6.53;;;;;;;18.03;100.00;155996.41;5107771;28;20441;-74
2021/07/04 04:38:06;;;;;;;8.20;7.40;;;;;;;18.04;100.00;155999.03;5075077;28;20719;-74
2021/07/04 04:40:42;;;;;;;7.80;7.00;;;;;;;17.96;100.00;155976.88;5074490;28;20433;-75
2021/07/04 04:43:17;;;;;;;8.57;7.73;;;;;;;17.87;100.00;155954.72;5086200;28;20556;-76
2021/07/04 04:45:52;;;;;;;7.70;6.90;;;;;;;17.89;100.00;155959.97;5086385;28;20446;-75
2021/07/04 04:48:28;;;;;;;8.60;7.80;;;;;;;17.78;100.00;155931.31;5074437;28;20441;-75
2021/07/04 04:51:06;;;;;;;7.90;7.20;;;;;;;17.81;100.00;155937.84;5107073;28;20449;-74
2021/07/04 04:53:41;;;;;;;6.70;6.10;;;;;;;17.81;100.00;155939.16;5106881;28;20445;-73
2021/07/04 04:56:17;;;;;;;9.37;7.37;;;;;;;17.76;100.00;155926.13;5069362;28;20442;-74
2021/07/04 04:58:53;;;;;;;7.83;7.03;;;;;;;17.73;100.00;155918.31;5075257;28;20462;-74
2021/07/04 05:01:29;;;;;;;9.40;8.40;;;;;;;17.71;100.00;155913.13;5070629;28;20447;-74
2021/07/04 05:04:06;;;;;;;7.80;7.10;;;;;;;17.71;100.00;155911.81;5074339;28;20438;-74
2021/07/04 05:06:43;;;;;;;7.80;6.80;;;;;;;17.71;100.00;155911.81;5059492;28;20498;-74
2021/07/04 05:09:18;;;;;;;8.90;6.90;;;;;;;17.77;100.00;155928.69;5085755;28;20443;-74
2021/07/04 05:11:54;;;;;;;7.87;7.17;;;;;;;17.80;100.00;155936.53;5104958;28;20843;-75
2021/07/04 05:14:30;;;;;;;7.00;6.30;;;;;;;17.83;100.00;155943.03;5090674;28;20444;-75
2021/07/04 05:17:05;;;;;;;7.70;7.00;;;;;;;17.77;100.00;155928.69;5054447;28;20513;-75
2021/07/04 05:19:41;;;;;;;8.70;7.90;;;;;;;17.82;100.00;155941.72;5072322;28;20544;-75
2021/07/04 05:22:17;;;;;;;8.23;7.50;;;;;;;17.85;100.00;155949.53;5070772;28;20453;-75
2021/07/04 05:24:53;;;;;;;9.90;8.67;;;;;;;17.86;100.00;155952.16;5087319;28;20849;-74
2021/07/04 05:27:29;;;;;;;8.43;7.60;;;;;;;17.96;100.00;155978.19;5087085;28;20929;-75
2021/07/04 05:30:05;;;;;;;9.07;7.93;;;;;;;17.98;100.00;155983.38;5089125;28;20450;-75
2021/07/04 05:32:41;;;;;;;8.00;7.03;;;;;;;18.15;99.79;156027.69;5073238;28;20438;-75
2021/07/04 05:35:16;;;;;;;7.10;6.40;;;;;;;18.22;98.90;156045.91;5079283;28;20450;-74
2021/07/04 05:37:53;;;;;;;7.57;6.87;;;;;;;18.40;97.67;156090.22;5106475;28;20449;-75
2021/07/04 05:40:29;;;;;;;8.30;7.50;;;;;;;18.89;95.41;156216.59;5087310;28;20839;-74
2021/07/04 05:43:04;;;;;;;7.10;6.50;;;;;;;19.42;91.59;156354.78;5103861;28;20461;-75
2021/07/04 05:45:40;;;;;;;8.73;7.83;;;;;;;19.67;89.22;156418.69;5089379;28;20809;-75
2021/07/04 05:48:15;;;;;;;11.60;7.83;;;;;;;20.11;87.00;156533.41;5052531;28;20443;-74
2021/07/04 05:50:51;;;;;;;8.00;7.20;;;;;;;20.17;85.50;156549.06;5086589;28;20443;-75
2021/07/04 05:53:28;;;;;;;8.30;7.50;;;;;;;20.43;84.96;156616.94;5065209;28;20446;-75
2021/07/04 05:56:04;;;;;;;7.40;6.80;;;;;;;20.84;84.40;156722.59;5106005;28;21043;-74
2021/07/04 05:58:39;;;;;;;8.07;7.30;;;;;;;21.36;83.32;156857.09;5095621;28;20462;-74
2021/07/04 06:01:15;;;;;;;8.00;7.30;;;;;;;21.49;80.15;156891.03;5101787;28;20450;-75
2021/07/04 06:03:50;;;;;;;7.37;6.70;;;;;;;21.15;80.49;156802.25;5058927;28;20450;-75
2021/07/04 06:06:26;;;;;;;8.13;7.37;;;;;;;20.93;81.90;156746.09;5056628;28;20991;-75
2021/07/04 06:09:03;;;;;;;7.23;6.50;;;;;;;20.62;84.67;156666.47;5063611;28;20439;-75
2021/07/04 06:11:39;;;;;;;7.33;6.63;;;;;;;20.72;84.50;156691.28;5073181;28;20434;-75
2021/07/04 06:14:14;;;;;;;7.47;6.80;;;;;;;20.89;83.26;156734.38;5069344;28;20453;-76
2021/07/04 06:16:50;;;;;;;8.20;7.40;;;;;;;21.08;82.72;156783.97;5071713;28;20485;-75
2021/07/04 06:19:25;;;;;;;7.17;6.47;;;;;;;21.39;83.10;156864.91;5092211;28;20562;-75
2021/07/04 06:22:01;;;;;;;7.60;6.90;;;;;;;21.58;81.32;156913.16;5073598;28;20420;-74
2021/07/04 06:24:37;;;;;;;6.63;6.03;;;;;;;21.76;78.06;156960.22;5060158;28;20864;-74
2021/07/04 06:27:13;;;;;;;7.27;6.67;;;;;;;22.12;76.29;157052.94;5066753;28;20446;-74
2021/07/04 06:29:48;;;;;;;6.90;6.30;;;;;;;22.57;74.02;157170.50;5094379;28;20524;-74
2021/07/04 06:32:24;;;;;;;6.50;5.90;;;;;;;23.10;72.65;157306.41;5105232;28;20445;-74
2021/07/04 06:34:59;;;;;;;7.93;6.50;;;;;;;23.08;70.86;157301.22;5072502;28;20442;-75
2021/07/04 06:37:36;;;;;;;6.70;6.10;;;;;;;23.17;71.53;157324.69;5088542;28;20810;-92
2021/07/04 06:40:14;;;;;;;6.50;5.90;;;;;;;23.65;68.50;157450.25;5056408;28;20473;-92
2021/07/04 06:42:50;;;;;;;5.93;5.40;;;;;;;24.09;66.84;157564.06;5071995;28;20513;-93
2021/07/04 06:45:25;;;;;;;6.23;5.63;;;;;;;24.19;66.38;157590.22;5064200;28;20524;-93
2021/07/04 06:48:01;;;;;;;6.53;6.00;;;;;;;24.33;67.84;157625.53;5074613;28;20411;-92
2021/07/04 06:50:36;;;;;;;6.57;6.00;;;;;;;24.51;66.52;157672.59;5077540;28;20477;-75
2021/07/04 06:53:12;;;;;;;6.83;6.17;;;;;;;25.15;63.41;157840.09;5085976;28;20960;-75
2021/07/04 06:55:50;;;;;;;6.63;6.10;;;;;;;25.28;63.21;157872.84;5085103;28;20454;-75
2021/07/04 06:58:25;;;;;;;6.07;5.47;;;;;;;25.14;62.51;157837.50;5067584;28;20443;-75
2021/07/04 07:01:01;;;;;;;6.70;6.20;;;;;;;25.43;62.12;157913.41;5067217;28;20544;-75
2021/07/04 07:03:36;;;;;;;6.20;5.70;;;;;;;25.16;64.00;157841.41;5098398;28;20588;-75
2021/07/04 07:06:12;;;;;;;6.77;6.17;;;;;;;25.20;62.46;157853.22;5066043;28;20488;-75
2021/07/04 07:08:59;;;;;;;7.70;7.00;;;;;;;25.56;64.34;157946.16;5063823;28;21127;-75
2021/07/04 07:11:36;;;;;;;6.30;5.80;;;;;;;25.16;63.58;157842.72;5079124;28;20470;-75
2021/07/04 07:14:11;;;;;;;6.87;6.17;;;;;;;25.57;61.51;157947.47;5052340;28;20967;-75
2021/07/04 07:16:47;;;;;;;6.90;6.30;;;;;;;25.83;61.31;158015.53;5063350;28;20446;-76
2021/07/04 07:19:23;;;;;;;7.50;6.90;;;;;;;26.49;58.45;158188.44;5046573;28;20466;-74
2021/07/04 07:21:58;;;;;;;7.30;6.50;;;;;;;26.99;59.79;158318.16;5067441;28;20956;-76
2021/07/04 07:24:35;;;;;;;7.00;6.50;;;;;;;27.25;56.67;158383.66;5051351;28;20474;-75
2021/07/04 07:27:12;;;;;;;7.03;6.33;;;;;;;27.41;56.49;158426.94;5065139;28;20544;-75
2021/07/04 07:29:47;;;;;;;6.63;6.10;;;;;;;26.53;57.16;158197.56;5069602;28;20438;-75
2021/07/04 07:32:25;;;;;;;7.27;6.63;;;;;;;25.80;59.73;158007.69;5067731;28;20870;-75
2021/07/04 07:35:01;;;;;;;6.77;6.17;;;;;;;24.98;61.07;157795.63;5070193;28;20457;-75
2021/07/04 07:37:37;;;;;;;7.63;6.77;;;;;;;24.61;62.90;157698.75;5084414;28;20929;-75
2021/07/04 07:40:13;;;;;;;5.90;5.40;;;;;;;24.48;63.80;157664.75;5067588;28;20489;-75
2021/07/04 07:43:02;;;;;;;7.00;6.40;;;;;;;24.52;64.23;157676.50;5052262;28;20458;-75
2021/07/04 07:45:39;;;;;;;6.40;5.90;;;;;;;23.98;64.55;157536.56;5089009;28;20457;-76
2021/07/04 07:48:17;;;;;;;6.93;6.23;;;;;;;24.97;62.88;157793.00;5073487;28;20461;-75
2021/07/04 07:51:08;;;;;;;6.33;5.83;;;;;;;25.62;60.35;157961.88;5102626;28;20463;-75
2021/07/04 07:53:45;;;;;;;6.77;6.17;;;;;;;26.06;58.22;158074.44;5067833;28;20526;-75
2021/07/04 07:56:21;;;;;;;6.60;6.00;;;;;;;26.47;57.56;158183.22;5069199;28;20449;-75
2021/07/04 07:58:59;;;;;;;6.73;6.20;;;;;;;25.37;58.95;157897.69;5070682;28;20461;-75
2021/07/04 08:01:35;;;;;;;7.23;6.40;;;;;;;25.71;59.15;157984.09;5070333;28;20454;-75
2021/07/04 08:04:16;;;;;;;7.30;6.70;;;;;;;26.06;56.94;158074.44;5054855;28;20450;-75
2021/07/04 08:06:52;;;;;;;7.40;6.80;;;;;;;26.86;57.19;158284.09;5070657;28;20505;-75
2021/07/04 08:09:28;;;;;;;6.83;6.13;;;;;;;27.57;55.21;158467.56;5064587;28;21003;-75
2021/07/04 08:12:04;;;;;;;6.50;6.00;;;;;;;27.54;54.16;158461.03;5068745;28;20446;-75
2021/07/04 08:14:49;;;;;;;7.60;7.00;;;;;;;27.91;52.37;158556.69;5055798;28;20905;-75
2021/07/04 08:17:25;;;;;;;7.50;6.90;;;;;;;28.26;53.21;158647.22;5064779;28;20459;-75
2021/07/04 08:20:00;;;;;;;7.37;6.77;;;;;;;28.06;52.60;158596.13;5062751;28;20477;-75
2021/07/04 08:22:35;;;;;;;7.13;6.50;;;;;;;27.89;53.26;158550.16;5104068;28;20528;-75
2021/07/04 08:25:13;;;;;;;6.73;6.23;;;;;;;27.72;52.98;158508.19;5045269;28;20458;-75
2021/07/04 08:27:48;;;;;;;6.33;5.80;;;;;;;27.59;53.73;158474.13;5057656;28;20446;-75
2021/07/04 08:30:25;;;;;;;6.60;6.10;;;;;;;28.48;51.50;158704.94;5103651;28;20540;-75
2021/07/04 08:33:01;;;;;;;7.00;6.40;;;;;;;27.62;53.11;158480.69;5087804;28;20434;-75
2021/07/04 08:35:37;;;;;;;7.47;6.87;;;;;;;27.62;53.12;158482.00;5086201;28;20457;-75
2021/07/04 08:38:12;;;;;;;7.17;6.57;;;;;;;27.40;53.30;158424.38;5075109;28;20449;-75
2021/07/04 08:40:47;;;;;;;6.90;6.37;;;;;;;26.97;54.25;158312.94;5074278;28;20505;-75
2021/07/04 08:43:27;;;;;;;5.87;5.40;;;;;;;26.67;53.88;158232.94;5084634;28;20477;-75
2021/07/04 08:46:05;;;;;;;6.37;5.80;;;;;;;27.17;52.68;158364.00;5073001;28;20462;-75
2021/07/04 08:48:42;;;;;;;6.27;5.77;;;;;;;27.95;51.68;158565.91;5053120;28;20447;-75
2021/07/04 08:51:17;;;;;;;6.90;6.30;;;;;;;27.44;52.12;158433.50;5103221;28;20536;-75
2021/07/04 08:53:53;;;;;;;5.87;5.43;;;;;;;27.13;54.27;158354.88;5071826;28;20453;-75
2021/07/04 08:56:28;;;;;;;6.20;5.70;;;;;;;27.32;53.05;158403.34;5074407;28;20916;-75
2021/07/04 08:59:04;;;;;;;6.50;5.90;;;;;;;28.19;51.61;158628.88;5074683;28;20493;-75
2021/07/04 09:01:48;;;;;;;6.77;6.17;;;;;;;29.03;50.35;158846.59;5058137;28;20843;-76
2021/07/04 09:04:25;;;;;;;5.70;5.20;;;;;;;28.86;49.36;158804.63;5072200;28;20449;-76
2021/07/04 09:07:01;;;;;;;5.80;5.30;;;;;;;28.07;49.49;158598.69;5103529;28;20820;-75
2021/07/04 09:09:37;;;;;;;7.80;5.27;;;;;;;27.85;50.89;158539.69;5062192;28;20540;-75
2021/07/04 09:12:12;;;;;;;5.30;4.90;;;;;;;28.12;49.68;158610.50;5074679;28;20445;-75
2021/07/04 09:14:49;;;;;;;5.13;4.60;;;;;;;26.76;52.89;158256.53;5100971;28;20528;-76
2021/07/04 09:17:33;;;;;;;5.73;5.27;;;;;;;26.85;51.82;158280.16;5106566;28;20789;-75
2021/07/04 09:20:11;;;;;;;5.60;5.10;;;;;;;26.33;52.57;158146.53;5073215;28;20478;-75
2021/07/04 09:22:52;;;;;;;4.93;4.53;;;;;;;25.58;53.82;157950.06;5068308;28;20467;-75
2021/07/04 09:25:28;;;;;;;4.90;4.50;;;;;;;25.37;53.74;157896.38;5057128;28;20537;-75
2021/07/04 09:28:08;;;;;;;5.80;5.30;;;;;;;25.24;55.88;157863.66;5095889;28;20450;-75
2021/07/04 09:30:51;;;;;;;4.70;4.30;;;;;;;25.02;56.41;157804.78;5069960;28;20446;-75
2021/07/04 09:33:30;;;;;;;5.63;5.13;;;;;;;24.97;56.51;157793.00;5048137;28;20427;-75
2021/07/04 09:36:07;;;;;;;6.07;5.13;;;;;;;25.12;57.14;157832.28;5067049;28;20869;-75
2021/07/04 09:38:44;;;;;;;5.10;4.70;;;;;;;24.82;58.50;157753.75;5072062;28;20525;-75
2021/07/04 09:41:19;;;;;;;5.37;4.97;;;;;;;24.58;56.71;157692.22;5059569;28;20570;-75
2021/07/04 09:43:57;;;;;;;5.10;4.70;;;;;;;24.23;57.29;157601.97;5070927;28;20438;-75
2021/07/04 09:46:36;;;;;;;5.90;5.40;;;;;;;24.48;58.51;157666.06;5062235;28;20445;-75
2021/07/04 09:49:22;;;;;;;6.03;5.53;;;;;;;24.63;58.23;157703.97;5072267;28;20434;-75
2021/07/04 09:52:12;;;;;;;6.33;5.73;;;;;;;24.75;59.44;157736.66;5070896;28;20434;-75
2021/07/04 09:54:55;;;;;;;4.83;4.43;;;;;;;24.93;56.32;157781.22;5071262;28;20521;-75
2021/07/04 09:57:53;;;;;;;5.80;4.63;;;;;;;24.87;54.83;157766.84;5071727;28;20450;-75
2021/07/04 10:00:30;;;;;;;5.10;4.70;;;;;;;24.91;57.03;157776.00;5061879;28;20475;-75
2021/07/04 10:03:09;;;;;;;4.93;4.53;;;;;;;24.68;56.16;157717.06;5061029;28;20828;-75
2021/07/04 10:06:02;;;;;;;5.00;4.60;;;;;;;24.92;56.21;157778.59;5071157;28;20489;-75
2021/07/04 10:08:50;;;;;;;5.73;5.23;;;;;;;25.02;55.52;157804.78;5071597;28;20455;-75
2021/07/04 10:11:25;;;;;;;5.30;4.20;;;;;;;25.06;55.93;157816.56;5060731;28;20442;-75
2021/07/04 10:14:01;;;;;;;5.20;4.67;;;;;;;25.19;56.45;157849.25;5072661;28;20646;-75
2021/07/04 10:16:37;;;;;;;4.97;4.50;;;;;;;25.57;54.99;157947.47;5065638;28;20885;-75
2021/07/04 10:19:16;;;;;;;5.00;4.30;;;;;;;25.41;53.96;157908.19;5071235;28;20438;-75
2021/07/04 10:21:55;;;;;;;4.33;3.97;;;;;;;25.40;54.87;157905.53;5072293;28;20446;-75
2021/07/04 10:24:32;;;;;;;8.00;4.47;;;;;;;25.40;55.54;157904.22;5070966;28;20437;-75
2021/07/04 10:27:07;;;;;;;4.50;4.20;;;;;;;25.33;55.80;157887.22;5072661;28;20418;-75
2021/07/04 10:29:44;;;;;;;4.00;3.70;;;;;;;25.09;54.62;157823.09;5056018;28;20471;-75
2021/07/04 10:32:19;;;;;;;5.20;4.70;;;;;;;25.03;56.50;157808.69;5066829;28;20430;-75
2021/07/04 10:35:09;;;;;;;5.80;5.30;;;;;;;25.39;56.14;157901.59;5105011;28;20561;-75
2021/07/04 10:37:45;;;;;;;5.00;4.60;;;;;;;25.28;56.81;157874.09;5071712;28;20470;-75
2021/07/04 10:40:21;;;;;;;6.13;5.63;;;;;;;25.49;56.79;157926.53;5072025;28;21019;-75
2021/07/04 10:42:57;;;;;;;5.10;4.70;;;;;;;25.49;56.51;157926.53;5069907;28;20766;-75
2021/07/04 10:45:35;;;;;;;4.20;3.90;;;;;;;25.74;57.08;157991.97;5048921;28;20463;-75
2021/07/04 10:48:19;;;;;;;4.23;3.93;;;;;;;25.36;55.85;157893.78;5066218;28;20471;-75
2021/07/04 10:51:18;;;;;;;4.77;4.37;;;;;;;25.34;56.08;157888.50;5068003;28;20454;-75
2021/07/04 10:53:58;;;;;;;5.00;4.60;;;;;;;25.02;56.33;157804.78;5058510;28;20560;-75
2021/07/04 10:56:51;;;;;;;4.90;4.50;;;;;;;24.69;56.92;157719.69;5068264;28;20442;-75
2021/07/04 10:59:26;;;;;;;4.90;4.47;;;;;;;24.89;57.57;157772.03;5069032;28;21152;-75
2021/07/04 11:02:02;;;;;;;5.70;5.20;;;;;;;24.94;57.43;157783.84;5066891;28;20414;-75
2021/07/04 11:04:55;;;;;;;5.07;4.67;;;;;;;25.13;60.08;157833.53;5069357;28;20438;-75
2021/07/04 11:08:03;;;;;;;5.00;4.60;;;;;;;25.24;61.29;157862.34;5094581;28;20450;-75
2021/07/04 11:11:10;;;;;;;6.03;5.53;;;;;;;25.51;58.50;157933.06;5068026;28;21002;-75
2021/07/04 11:13:48;;;;;;;5.23;4.73;;;;;;;25.43;57.41;157912.09;5066537;28;20927;-75
2021/07/04 11:16:25;;;;;;;5.03;4.60;;;;;;;25.60;57.90;157956.59;5069374;28;20441;-75
2021/07/04 11:19:09;;;;;;;4.60;4.20;;;;;;;25.54;54.74;157939.63;5068042;28;20426;-75
2021/07/04 11:21:50;;;;;;;5.10;4.60;;;;;;;25.58;58.21;157950.06;5093429;28;20470;-75
2021/07/04 11:24:28;;;;;;;4.87;4.47;;;;;;;25.81;56.92;158011.63;5068680;28;20833;-75
2021/07/04 11:27:23;;;;;;;4.60;4.20;;;;;;;25.87;54.31;158026.00;5068105;28;20804;-75
2021/07/04 11:30:25;;;;;;;4.30;4.00;;;;;;;25.60;53.08;157955.34;5063922;28;20783;-75
2021/07/04 11:33:28;;;;;;;4.70;4.30;;;;;;;25.57;53.88;157947.47;5052328;28;20921;-76
2021/07/04 11:36:06;;;;;;;4.83;4.43;;;;;;;25.78;52.83;158003.78;5090389;28;21004;-75
2021/07/04 11:38:43;;;;;;;4.70;4.30;;;;;;;25.76;55.13;157998.50;5094254;28;20506;-75
2021/07/04 11:41:20;;;;;;;5.00;4.60;;;;;;;25.78;54.69;158002.47;5065052;28;20473;-75
2021/07/04 11:43:59;;;;;;;4.77;4.37;;;;;;;25.87;55.07;158027.31;5063494;28;20849;-75
2021/07/04 11:46:37;;;;;;;4.37;4.07;;;;;;;25.85;54.95;158020.78;5068716;28;20872;-75
2021/07/04 11:49:14;;;;;;;4.30;4.00;;;;;;;25.56;54.56;157944.84;5094482;28;20438;-75
2021/07/04 11:51:51;;;;;;;5.80;5.30;;;;;;;25.22;54.58;157858.44;5068130;28;20454;-75
2021/07/04 11:54:28;;;;;;;5.07;4.67;;;;;;;25.33;55.82;157887.22;5061598;28;20442;-75
2021/07/04 11:59:58;;;;;;;5.13;4.67;;;;;;;25.60;61.08;157956.59;5063946;28;20446;-75
2021/07/04 12:02:35;;;;;;;4.23;3.83;;;;;;;25.67;56.38;157973.66;5073650;28;20524;-75
2021/07/04 12:05:11;;;;;;;4.83;4.43;;;;;;;25.75;58.55;157994.59;5071670;28;20474;-75
2021/07/04 12:07:48;;;;;;;5.50;5.10;;;;;;;25.70;56.03;157981.50;5070475;28;20524;-75
2021/07/04 12:10:23;;;;;;;5.20;4.80;;;;;;;25.64;58.42;157965.78;5071374;28;20457;-75
2021/07/04 12:12:58;;;;;;;5.50;5.00;;;;;;;25.51;57.10;157933.06;5071321;28;20545;-75
2021/07/04 12:15:36;;;;;;;5.27;4.87;;;;;;;25.55;56.78;157942.25;5056540;28;20486;-75